Meteo Giornale » Osservazioni meteo Italia » Grazzanise

ore: 14:55 - Osservazioni Meteo Grazzanise
Lat. 41° 3' N Lon. 14° 4' E Alt. 9 metri s.l.m.

poco_nuvoloso Europe/Rome

35 °C

Poco Nuvoloso

Temp. 24 Ore

23 °C

35 °C

Ovest/Nord-Ovest

18.5 Km/h

Dew point 21 °C

Umidità 44 %

Visibilità  10 Km

Il sole sorge alle ore 05:31

Il sole tramonta alle ore 20:41

Data e Ora Cielo e Fenomeni T °C DP °C Um. % Pres. hPa Vis. km Vento km/h
Oggi h: 14:55 poco_nuvoloso Poco Nuvoloso 35 21 44 1015 10 O/NO 18.5
Oggi h: 13:55 poco_nuvoloso Poco Nuvoloso 35 21 44 1016 10 O 14.8
Oggi h: 12:55 poco_nuvoloso Poco Nuvoloso 35 21 44 1017 10 O/SO 18.5
Oggi h: 11:55 poco_nuvoloso Poco Nuvoloso 35 18 36 1017 10 N 5.5
Oggi h: 10:55 sereno Sereno 35 18 36 1017 10 N 3.7
Oggi h: 09:55 sereno Sereno 32 20 49 1018 10 N 3.7
Oggi h: 07:55 sereno Sereno 27 22 74 1018 10 N 3.7
Oggi h: 06:55 sereno Sereno 23 22 94 1018 10 N 3.7
Oggi h: 05:55 sereno Sereno 23 22 94 1018 10 N 3.7
Oggi h: 04:55 sereno Sereno 23 22 94 1018 10 N 3.7
Oggi h: 03:55 sereno Sereno 23 22 94 1018 10 N 5.5
Oggi h: 02:55 sereno Sereno 24 22 88 1018 10 N 0
Oggi h: 01:55 sereno Sereno 25 22 83 1018 10 N 0
Ieri h: 23:55 sereno Sereno 26 21 73 1018 10 N 5.5
Ieri h: 22:55 sereno Sereno 28 20 61 1018 10 N 5.5
Ieri h: 21:55 sereno Sereno 30 19 51 1018 10 NE 7.4
Ieri h: 20:55 sereno Sereno 32 19 46 1017 10 E/NE 13
Ieri h: 19:55 sereno Sereno 34 20 43 1018 10 E/NE 13
Ieri h: 18:55 poco_nuvoloso Poco Nuvoloso 34 20 43 1018 10 E/NE 13
Ieri h: 17:55 nuvoloso Nuvoloso 34 21 46 1018 10 NE 13
Ieri h: 16:55 nuvoloso Nuvoloso 34 24 56 1018 10 O 7.4
Ieri h: 15:55 poco_nuvoloso Poco Nuvoloso 34 22 49 1018 10 O 18.5